sensor_id;sensor_type;location;lat;lon;timestamp;temperature;humidity
49236;DHT22;35067;48.134;8.378;2023-11-21T00:00:37;6.60;99.90
49236;DHT22;35067;48.134;8.378;2023-11-21T00:01:38;6.50;99.90
49236;DHT22;35067;48.134;8.378;2023-11-21T00:02:39;6.50;99.90
49236;DHT22;35067;48.134;8.378;2023-11-21T00:03:41;6.50;99.90
49236;DHT22;35067;48.134;8.378;2023-11-21T00:04:41;6.50;99.90
49236;DHT22;35067;48.134;8.378;2023-11-21T00:05:42;6.50;99.90
49236;DHT22;35067;48.134;8.378;2023-11-21T00:06:43;6.50;99.90
49236;DHT22;35067;48.134;8.378;2023-11-21T00:07:47;6.50;99.90
49236;DHT22;35067;48.134;8.378;2023-11-21T00:08:47;6.50;99.90
49236;DHT22;35067;48.134;8.378;2023-11-21T00:09:48;6.60;99.90
49236;DHT22;35067;48.134;8.378;2023-11-21T00:10:49;6.50;99.90
49236;DHT22;35067;48.134;8.378;2023-11-21T00:11:49;6.60;99.90
49236;DHT22;35067;48.134;8.378;2023-11-21T00:12:50;6.50;99.90
49236;DHT22;35067;48.134;8.378;2023-11-21T00:13:51;6.40;99.90
49236;DHT22;35067;48.134;8.378;2023-11-21T00:14:52;6.40;99.90
49236;DHT22;35067;48.134;8.378;2023-11-21T00:15:53;6.40;99.90
49236;DHT22;35067;48.134;8.378;2023-11-21T00:16:54;6.40;99.90
49236;DHT22;35067;48.134;8.378;2023-11-21T00:17:55;6.40;99.90
49236;DHT22;35067;48.134;8.378;2023-11-21T00:18:55;6.50;99.90
49236;DHT22;35067;48.134;8.378;2023-11-21T00:19:56;6.50;99.90
49236;DHT22;35067;48.134;8.378;2023-11-21T00:20:57;6.50;99.90
49236;DHT22;35067;48.134;8.378;2023-11-21T00:21:59;6.60;99.90
49236;DHT22;35067;48.134;8.378;2023-11-21T00:23:00;6.60;99.90
49236;DHT22;35067;48.134;8.378;2023-11-21T00:24:02;6.50;99.90
49236;DHT22;35067;48.134;8.378;2023-11-21T00:25:04;6.60;99.90
49236;DHT22;35067;48.134;8.378;2023-11-21T00:26:05;6.50;99.90
49236;DHT22;35067;48.134;8.378;2023-11-21T00:27:06;6.50;99.90
49236;DHT22;35067;48.134;8.378;2023-11-21T00:28:07;6.60;99.90
49236;DHT22;35067;48.134;8.378;2023-11-21T00:29:07;6.60;99.90
49236;DHT22;35067;48.134;8.378;2023-11-21T00:30:08;6.50;99.90
49236;DHT22;35067;48.134;8.378;2023-11-21T00:31:10;6.50;99.90
49236;DHT22;35067;48.134;8.378;2023-11-21T00:32:10;6.40;99.90
49236;DHT22;35067;48.134;8.378;2023-11-21T00:33:11;6.40;99.90
49236;DHT22;35067;48.134;8.378;2023-11-21T00:34:12;6.30;99.90
49236;DHT22;35067;48.134;8.378;2023-11-21T00:35:13;6.20;99.90
49236;DHT22;35067;48.134;8.378;2023-11-21T00:36:14;6.30;99.90
49236;DHT22;35067;48.134;8.378;2023-11-21T00:37:14;6.20;99.90
49236;DHT22;35067;48.134;8.378;2023-11-21T00:38:15;6.20;99.90
49236;DHT22;35067;48.134;8.378;2023-11-21T00:39:16;6.20;99.90
49236;DHT22;35067;48.134;8.378;2023-11-21T00:40:16;6.20;99.90
49236;DHT22;35067;48.134;8.378;2023-11-21T00:41:19;6.20;99.90
49236;DHT22;35067;48.134;8.378;2023-11-21T00:42:20;6.20;99.90
49236;DHT22;35067;48.134;8.378;2023-11-21T00:43:22;6.20;99.90
49236;DHT22;35067;48.134;8.378;2023-11-21T00:44:23;6.20;99.90
49236;DHT22;35067;48.134;8.378;2023-11-21T00:45:24;6.30;99.90
49236;DHT22;35067;48.134;8.378;2023-11-21T00:46:25;6.30;99.90
49236;DHT22;35067;48.134;8.378;2023-11-21T00:47:28;6.30;99.90
49236;DHT22;35067;48.134;8.378;2023-11-21T00:48:29;6.30;99.90
49236;DHT22;35067;48.134;8.378;2023-11-21T00:49:30;6.20;99.90
49236;DHT22;35067;48.134;8.378;2023-11-21T00:50:31;6.20;99.90
49236;DHT22;35067;48.134;8.378;2023-11-21T00:51:31;6.20;99.90
49236;DHT22;35067;48.134;8.378;2023-11-21T00:52:33;6.20;99.90
49236;DHT22;35067;48.134;8.378;2023-11-21T00:53:34;6.20;99.90
49236;DHT22;35067;48.134;8.378;2023-11-21T00:54:34;6.20;99.90
49236;DHT22;35067;48.134;8.378;2023-11-21T00:55:35;6.30;99.90
49236;DHT22;35067;48.134;8.378;2023-11-21T00:56:36;6.20;99.90
49236;DHT22;35067;48.134;8.378;2023-11-21T00:57:37;6.20;99.90
49236;DHT22;35067;48.134;8.378;2023-11-21T00:58:38;6.20;99.90
49236;DHT22;35067;48.134;8.378;2023-11-21T00:59:39;6.20;99.90
49236;DHT22;35067;48.134;8.378;2023-11-21T01:00:40;6.20;99.90
49236;DHT22;35067;48.134;8.378;2023-11-21T01:01:41;6.30;99.90
49236;DHT22;35067;48.134;8.378;2023-11-21T01:02:42;6.20;99.90
49236;DHT22;35067;48.134;8.378;2023-11-21T01:03:46;6.20;99.90
49236;DHT22;35067;48.134;8.378;2023-11-21T01:04:47;6.20;99.90
49236;DHT22;35067;48.134;8.378;2023-11-21T01:05:48;6.20;99.90
49236;DHT22;35067;48.134;8.378;2023-11-21T01:06:50;6.20;99.90
49236;DHT22;35067;48.134;8.378;2023-11-21T01:07:51;6.20;99.90
49236;DHT22;35067;48.134;8.378;2023-11-21T01:08:51;6.20;99.90
49236;DHT22;35067;48.134;8.378;2023-11-21T01:09:52;6.20;99.90
49236;DHT22;35067;48.134;8.378;2023-11-21T01:10:53;6.20;99.90
49236;DHT22;35067;48.134;8.378;2023-11-21T01:11:54;6.20;99.90
49236;DHT22;35067;48.134;8.378;2023-11-21T01:12:54;6.20;99.90
49236;DHT22;35067;48.134;8.378;2023-11-21T01:13:55;6.20;99.90
49236;DHT22;35067;48.134;8.378;2023-11-21T01:14:56;6.20;99.90
49236;DHT22;35067;48.134;8.378;2023-11-21T01:15:58;6.20;99.90
49236;DHT22;35067;48.134;8.378;2023-11-21T01:16:58;6.10;99.90
49236;DHT22;35067;48.134;8.378;2023-11-21T01:17:59;6.10;99.90
49236;DHT22;35067;48.134;8.378;2023-11-21T01:19:00;6.10;99.90
49236;DHT22;35067;48.134;8.378;2023-11-21T01:20:02;6.20;99.90
49236;DHT22;35067;48.134;8.378;2023-11-21T01:21:06;6.20;99.90
49236;DHT22;35067;48.134;8.378;2023-11-21T01:22:08;6.10;99.90
49236;DHT22;35067;48.134;8.378;2023-11-21T01:23:09;6.10;99.90
49236;DHT22;35067;48.134;8.378;2023-11-21T01:24:10;6.20;99.90
49236;DHT22;35067;48.134;8.378;2023-11-21T01:25:10;6.20;99.90
49236;DHT22;35067;48.134;8.378;2023-11-21T01:26:11;6.20;99.90
49236;DHT22;35067;48.134;8.378;2023-11-21T01:27:12;6.20;99.90
49236;DHT22;35067;48.134;8.378;2023-11-21T01:28:13;6.20;99.90
49236;DHT22;35067;48.134;8.378;2023-11-21T01:29:13;6.20;99.90
49236;DHT22;35067;48.134;8.378;2023-11-21T01:30:15;6.20;99.90
49236;DHT22;35067;48.134;8.378;2023-11-21T01:31:16;6.20;99.90
49236;DHT22;35067;48.134;8.378;2023-11-21T01:32:17;6.20;99.90
49236;DHT22;35067;48.134;8.378;2023-11-21T01:33:18;6.20;99.90
49236;DHT22;35067;48.134;8.378;2023-11-21T01:34:19;6.20;99.90
49236;DHT22;35067;48.134;8.378;2023-11-21T01:35:21;6.30;99.90
49236;DHT22;35067;48.134;8.378;2023-11-21T01:36:21;6.30;99.90
49236;DHT22;35067;48.134;8.378;2023-11-21T01:37:22;6.30;99.90
49236;DHT22;35067;48.134;8.378;2023-11-21T01:38:23;6.20;99.90
49236;DHT22;35067;48.134;8.378;2023-11-21T01:39:25;6.30;99.90
49236;DHT22;35067;48.134;8.378;2023-11-21T01:40:26;6.20;99.90
49236;DHT22;35067;48.134;8.378;2023-11-21T01:41:27;6.20;99.90
49236;DHT22;35067;48.134;8.378;2023-11-21T01:42:29;6.30;99.90
49236;DHT22;35067;48.134;8.378;2023-11-21T01:43:29;6.30;99.90
49236;DHT22;35067;48.134;8.378;2023-11-21T01:44:32;6.40;99.90
49236;DHT22;35067;48.134;8.378;2023-11-21T01:45:37;6.50;99.90
49236;DHT22;35067;48.134;8.378;2023-11-21T01:46:40;6.50;99.90
49236;DHT22;35067;48.134;8.378;2023-11-21T01:47:42;6.50;99.90
49236;DHT22;35067;48.134;8.378;2023-11-21T01:48:45;6.50;99.90
49236;DHT22;35067;48.134;8.378;2023-11-21T01:49:46;6.50;99.90
49236;DHT22;35067;48.134;8.378;2023-11-21T01:50:48;6.50;99.90
49236;DHT22;35067;48.134;8.378;2023-11-21T01:51:49;6.50;99.90
49236;DHT22;35067;48.134;8.378;2023-11-21T01:52:52;6.50;99.90
49236;DHT22;35067;48.134;8.378;2023-11-21T01:53:53;6.50;99.90
49236;DHT22;35067;48.134;8.378;2023-11-21T01:54:53;6.60;99.90
49236;DHT22;35067;48.134;8.378;2023-11-21T01:55:55;6.60;99.90
49236;DHT22;35067;48.134;8.378;2023-11-21T01:57:00;6.60;99.90
49236;DHT22;35067;48.134;8.378;2023-11-21T01:58:03;6.50;99.90
49236;DHT22;35067;48.134;8.378;2023-11-21T01:59:03;6.50;99.90
49236;DHT22;35067;48.134;8.378;2023-11-21T02:00:05;6.60;99.90
49236;DHT22;35067;48.134;8.378;2023-11-21T02:01:15;6.60;99.90
49236;DHT22;35067;48.134;8.378;2023-11-21T02:02:18;6.60;99.90
49236;DHT22;35067;48.134;8.378;2023-11-21T02:03:19;6.50;99.90
49236;DHT22;35067;48.134;8.378;2023-11-21T02:04:20;6.50;99.90
49236;DHT22;35067;48.134;8.378;2023-11-21T02:05:21;6.40;99.90
49236;DHT22;35067;48.134;8.378;2023-11-21T02:06:22;6.50;99.90
49236;DHT22;35067;48.134;8.378;2023-11-21T02:07:24;6.40;99.90
49236;DHT22;35067;48.134;8.378;2023-11-21T02:08:25;6.40;99.90
49236;DHT22;35067;48.134;8.378;2023-11-21T02:09:27;6.40;99.90
49236;DHT22;35067;48.134;8.378;2023-11-21T02:10:30;6.40;99.90
49236;DHT22;35067;48.134;8.378;2023-11-21T02:11:31;6.40;99.90
49236;DHT22;35067;48.134;8.378;2023-11-21T02:12:35;6.40;99.90
49236;DHT22;35067;48.134;8.378;2023-11-21T02:13:36;6.40;99.90
49236;DHT22;35067;48.134;8.378;2023-11-21T02:14:37;6.40;99.90
49236;DHT22;35067;48.134;8.378;2023-11-21T02:15:38;6.40;99.90
49236;DHT22;35067;48.134;8.378;2023-11-21T02:16:39;6.30;99.90
49236;DHT22;35067;48.134;8.378;2023-11-21T02:17:44;6.30;99.90
49236;DHT22;35067;48.134;8.378;2023-11-21T02:18:44;6.40;99.90
49236;DHT22;35067;48.134;8.378;2023-11-21T02:19:47;6.40;99.90
49236;DHT22;35067;48.134;8.378;2023-11-21T02:20:51;6.40;99.90
49236;DHT22;35067;48.134;8.378;2023-11-21T02:21:52;6.40;99.90
49236;DHT22;35067;48.134;8.378;2023-11-21T02:22:55;6.40;99.90
49236;DHT22;35067;48.134;8.378;2023-11-21T02:23:59;6.20;99.90
49236;DHT22;35067;48.134;8.378;2023-11-21T02:25:00;6.20;99.90
49236;DHT22;35067;48.134;8.378;2023-11-21T02:26:01;6.20;99.90
49236;DHT22;35067;48.134;8.378;2023-11-21T02:27:04;6.20;99.90
49236;DHT22;35067;48.134;8.378;2023-11-21T02:28:06;6.30;99.90
49236;DHT22;35067;48.134;8.378;2023-11-21T02:29:07;6.20;99.90
49236;DHT22;35067;48.134;8.378;2023-11-21T02:30:11;6.20;99.90
49236;DHT22;35067;48.134;8.378;2023-11-21T02:31:13;6.20;99.90
49236;DHT22;35067;48.134;8.378;2023-11-21T02:32:14;6.20;99.90
49236;DHT22;35067;48.134;8.378;2023-11-21T02:33:17;6.20;99.90
49236;DHT22;35067;48.134;8.378;2023-11-21T02:34:18;6.30;99.90
49236;DHT22;35067;48.134;8.378;2023-11-21T02:35:19;6.30;99.90
49236;DHT22;35067;48.134;8.378;2023-11-21T02:36:22;6.40;99.90
49236;DHT22;35067;48.134;8.378;2023-11-21T02:37:23;6.30;99.90
49236;DHT22;35067;48.134;8.378;2023-11-21T02:38:24;6.20;99.90
49236;DHT22;35067;48.134;8.378;2023-11-21T02:39:25;6.30;99.90
49236;DHT22;35067;48.134;8.378;2023-11-21T02:40:26;6.20;99.90
49236;DHT22;35067;48.134;8.378;2023-11-21T02:41:26;6.10;99.90
49236;DHT22;35067;48.134;8.378;2023-11-21T02:42:27;6.10;99.90
49236;DHT22;35067;48.134;8.378;2023-11-21T02:43:28;6.20;99.90
49236;DHT22;35067;48.134;8.378;2023-11-21T02:44:30;6.10;99.90
49236;DHT22;35067;48.134;8.378;2023-11-21T02:45:30;6.10;99.90
49236;DHT22;35067;48.134;8.378;2023-11-21T02:46:33;6.10;99.90
49236;DHT22;35067;48.134;8.378;2023-11-21T02:47:34;6.00;99.90
49236;DHT22;35067;48.134;8.378;2023-11-21T02:48:35;5.90;99.90
49236;DHT22;35067;48.134;8.378;2023-11-21T02:49:36;5.90;99.90
49236;DHT22;35067;48.134;8.378;2023-11-21T02:50:37;5.90;99.90
49236;DHT22;35067;48.134;8.378;2023-11-21T02:51:37;6.00;99.90
49236;DHT22;35067;48.134;8.378;2023-11-21T02:52:39;5.90;99.90
49236;DHT22;35067;48.134;8.378;2023-11-21T02:53:43;6.00;99.90
49236;DHT22;35067;48.134;8.378;2023-11-21T02:54:43;6.00;99.90
49236;DHT22;35067;48.134;8.378;2023-11-21T02:55:44;6.00;99.90
49236;DHT22;35067;48.134;8.378;2023-11-21T02:56:45;6.00;99.90
49236;DHT22;35067;48.134;8.378;2023-11-21T02:57:46;5.90;99.90
49236;DHT22;35067;48.134;8.378;2023-11-21T02:58:46;5.90;99.90
49236;DHT22;35067;48.134;8.378;2023-11-21T02:59:47;5.80;99.90
49236;DHT22;35067;48.134;8.378;2023-11-21T03:00:48;5.80;99.90
49236;DHT22;35067;48.134;8.378;2023-11-21T03:01:49;5.70;99.90
49236;DHT22;35067;48.134;8.378;2023-11-21T03:02:50;5.80;99.90
49236;DHT22;35067;48.134;8.378;2023-11-21T03:03:50;5.80;99.90
49236;DHT22;35067;48.134;8.378;2023-11-21T03:04:51;5.80;99.90
49236;DHT22;35067;48.134;8.378;2023-11-21T03:05:52;5.80;99.90
49236;DHT22;35067;48.134;8.378;2023-11-21T03:06:53;5.80;99.90
49236;DHT22;35067;48.134;8.378;2023-11-21T03:07:54;5.80;99.90
49236;DHT22;35067;48.134;8.378;2023-11-21T03:08:54;5.80;99.90
49236;DHT22;35067;48.134;8.378;2023-11-21T03:09:55;5.80;99.90
49236;DHT22;35067;48.134;8.378;2023-11-21T03:10:56;5.70;99.90
49236;DHT22;35067;48.134;8.378;2023-11-21T03:11:56;5.60;99.90
49236;DHT22;35067;48.134;8.378;2023-11-21T03:12:57;5.60;99.90
49236;DHT22;35067;48.134;8.378;2023-11-21T03:13:58;5.50;99.90
49236;DHT22;35067;48.134;8.378;2023-11-21T03:14:59;5.50;99.90
49236;DHT22;35067;48.134;8.378;2023-11-21T03:15:59;5.40;99.90
49236;DHT22;35067;48.134;8.378;2023-11-21T03:17:00;5.40;99.90
49236;DHT22;35067;48.134;8.378;2023-11-21T03:18:01;5.40;99.90
49236;DHT22;35067;48.134;8.378;2023-11-21T03:19:02;5.40;99.90
49236;DHT22;35067;48.134;8.378;2023-11-21T03:20:04;5.40;99.90
49236;DHT22;35067;48.134;8.378;2023-11-21T03:21:06;5.40;99.90
49236;DHT22;35067;48.134;8.378;2023-11-21T03:22:09;5.40;99.90
49236;DHT22;35067;48.134;8.378;2023-11-21T03:23:10;5.40;99.90
49236;DHT22;35067;48.134;8.378;2023-11-21T03:24:10;5.40;99.90
49236;DHT22;35067;48.134;8.378;2023-11-21T03:25:11;5.40;99.90
49236;DHT22;35067;48.134;8.378;2023-11-21T03:26:12;5.50;99.90
49236;DHT22;35067;48.134;8.378;2023-11-21T03:27:13;5.40;99.90
49236;DHT22;35067;48.134;8.378;2023-11-21T03:28:14;5.40;99.90
49236;DHT22;35067;48.134;8.378;2023-11-21T03:29:15;5.40;99.90
49236;DHT22;35067;48.134;8.378;2023-11-21T03:30:16;5.50;99.90
49236;DHT22;35067;48.134;8.378;2023-11-21T03:31:17;5.50;99.90
49236;DHT22;35067;48.134;8.378;2023-11-21T03:32:19;5.50;99.90
49236;DHT22;35067;48.134;8.378;2023-11-21T03:33:20;5.40;99.90
49236;DHT22;35067;48.134;8.378;2023-11-21T03:34:27;5.40;99.90
49236;DHT22;35067;48.134;8.378;2023-11-21T03:35:28;5.40;99.90
49236;DHT22;35067;48.134;8.378;2023-11-21T03:36:28;5.40;99.90
49236;DHT22;35067;48.134;8.378;2023-11-21T03:37:29;5.40;99.90
49236;DHT22;35067;48.134;8.378;2023-11-21T03:38:30;5.40;99.90
49236;DHT22;35067;48.134;8.378;2023-11-21T03:39:30;5.50;99.90
49236;DHT22;35067;48.134;8.378;2023-11-21T03:40:31;5.60;99.90
49236;DHT22;35067;48.134;8.378;2023-11-21T03:41:32;5.60;99.90
49236;DHT22;35067;48.134;8.378;2023-11-21T03:42:34;5.60;99.90
49236;DHT22;35067;48.134;8.378;2023-11-21T03:43:35;5.60;99.90
49236;DHT22;35067;48.134;8.378;2023-11-21T03:44:36;5.60;99.90
49236;DHT22;35067;48.134;8.378;2023-11-21T03:45:37;5.60;99.90
49236;DHT22;35067;48.134;8.378;2023-11-21T03:46:40;5.60;99.90
49236;DHT22;35067;48.134;8.378;2023-11-21T03:47:42;5.70;99.90
49236;DHT22;35067;48.134;8.378;2023-11-21T03:48:42;5.70;99.90
49236;DHT22;35067;48.134;8.378;2023-11-21T03:49:43;5.80;99.90
49236;DHT22;35067;48.134;8.378;2023-11-21T03:50:44;5.80;99.90
49236;DHT22;35067;48.134;8.378;2023-11-21T03:51:44;5.80;99.90
49236;DHT22;35067;48.134;8.378;2023-11-21T03:52:45;5.70;99.90
49236;DHT22;35067;48.134;8.378;2023-11-21T03:53:46;5.70;99.90
49236;DHT22;35067;48.134;8.378;2023-11-21T03:54:46;5.80;99.90
49236;DHT22;35067;48.134;8.378;2023-11-21T03:55:47;5.80;99.90
49236;DHT22;35067;48.134;8.378;2023-11-21T03:56:49;5.80;99.90
49236;DHT22;35067;48.134;8.378;2023-11-21T03:57:50;5.80;99.90
49236;DHT22;35067;48.134;8.378;2023-11-21T03:58:51;5.90;99.90
49236;DHT22;35067;48.134;8.378;2023-11-21T03:59:52;5.90;99.90
49236;DHT22;35067;48.134;8.378;2023-11-21T04:00:53;5.90;99.90
49236;DHT22;35067;48.134;8.378;2023-11-21T04:01:56;5.90;99.90
49236;DHT22;35067;48.134;8.378;2023-11-21T04:02:57;5.90;99.90
49236;DHT22;35067;48.134;8.378;2023-11-21T04:03:58;5.90;99.90
49236;DHT22;35067;48.134;8.378;2023-11-21T04:04:59;5.90;99.90
49236;DHT22;35067;48.134;8.378;2023-11-21T04:06:00;5.90;99.90
49236;DHT22;35067;48.134;8.378;2023-11-21T04:07:01;5.90;99.90
49236;DHT22;35067;48.134;8.378;2023-11-21T04:08:02;5.90;99.90
49236;DHT22;35067;48.134;8.378;2023-11-21T04:09:03;6.00;99.90
49236;DHT22;35067;48.134;8.378;2023-11-21T04:10:06;6.00;99.90
49236;DHT22;35067;48.134;8.378;2023-11-21T04:11:09;6.00;99.90
49236;DHT22;35067;48.134;8.378;2023-11-21T04:12:12;6.00;99.90
49236;DHT22;35067;48.134;8.378;2023-11-21T04:13:12;6.00;99.90
49236;DHT22;35067;48.134;8.378;2023-11-21T04:14:14;6.10;99.90
49236;DHT22;35067;48.134;8.378;2023-11-21T04:15:15;6.10;99.90
49236;DHT22;35067;48.134;8.378;2023-11-21T04:16:15;6.00;99.90
49236;DHT22;35067;48.134;8.378;2023-11-21T04:17:18;6.10;99.90
49236;DHT22;35067;48.134;8.378;2023-11-21T04:18:19;6.10;99.90
49236;DHT22;35067;48.134;8.378;2023-11-21T04:19:20;6.00;99.90
49236;DHT22;35067;48.134;8.378;2023-11-21T04:20:21;5.90;99.90
49236;DHT22;35067;48.134;8.378;2023-11-21T04:21:24;5.80;99.90
49236;DHT22;35067;48.134;8.378;2023-11-21T04:22:24;5.80;99.90
49236;DHT22;35067;48.134;8.378;2023-11-21T04:23:25;5.90;99.90
49236;DHT22;35067;48.134;8.378;2023-11-21T04:24:26;5.90;99.90
49236;DHT22;35067;48.134;8.378;2023-11-21T04:25:27;5.80;99.90
49236;DHT22;35067;48.134;8.378;2023-11-21T04:26:28;5.70;99.90
49236;DHT22;35067;48.134;8.378;2023-11-21T04:27:29;5.80;99.90
49236;DHT22;35067;48.134;8.378;2023-11-21T04:28:30;5.80;99.90
49236;DHT22;35067;48.134;8.378;2023-11-21T04:29:31;5.90;99.90
49236;DHT22;35067;48.134;8.378;2023-11-21T04:30:31;5.80;99.90
49236;DHT22;35067;48.134;8.378;2023-11-21T04:31:33;5.80;99.90
49236;DHT22;35067;48.134;8.378;2023-11-21T04:32:33;5.80;99.90
49236;DHT22;35067;48.134;8.378;2023-11-21T04:33:34;5.80;99.90
49236;DHT22;35067;48.134;8.378;2023-11-21T04:34:35;5.70;99.90
49236;DHT22;35067;48.134;8.378;2023-11-21T04:35:35;5.60;99.90
49236;DHT22;35067;48.134;8.378;2023-11-21T04:36:36;5.60;99.90
49236;DHT22;35067;48.134;8.378;2023-11-21T04:37:37;5.50;99.90
49236;DHT22;35067;48.134;8.378;2023-11-21T04:38:38;5.50;99.90
49236;DHT22;35067;48.134;8.378;2023-11-21T04:39:38;5.40;99.90
49236;DHT22;35067;48.134;8.378;2023-11-21T04:40:39;5.40;99.90
49236;DHT22;35067;48.134;8.378;2023-11-21T04:41:40;5.30;99.90
49236;DHT22;35067;48.134;8.378;2023-11-21T04:42:40;5.30;99.90
49236;DHT22;35067;48.134;8.378;2023-11-21T04:43:41;5.30;99.90
49236;DHT22;35067;48.134;8.378;2023-11-21T04:44:42;5.30;99.90
49236;DHT22;35067;48.134;8.378;2023-11-21T04:45:44;5.30;99.90
49236;DHT22;35067;48.134;8.378;2023-11-21T04:46:45;5.20;99.90
49236;DHT22;35067;48.134;8.378;2023-11-21T04:47:45;5.20;99.90
49236;DHT22;35067;48.134;8.378;2023-11-21T04:48:46;5.10;99.90
49236;DHT22;35067;48.134;8.378;2023-11-21T04:49:47;5.10;99.90
49236;DHT22;35067;48.134;8.378;2023-11-21T04:50:48;5.10;99.90
49236;DHT22;35067;48.134;8.378;2023-11-21T04:51:49;5.10;99.90
49236;DHT22;35067;48.134;8.378;2023-11-21T04:52:49;5.10;99.90
49236;DHT22;35067;48.134;8.378;2023-11-21T04:53:50;5.10;99.90
49236;DHT22;35067;48.134;8.378;2023-11-21T04:54:51;5.10;99.90
49236;DHT22;35067;48.134;8.378;2023-11-21T04:55:51;5.10;99.90
49236;DHT22;35067;48.134;8.378;2023-11-21T04:56:53;5.10;99.90
49236;DHT22;35067;48.134;8.378;2023-11-21T04:57:54;5.10;99.90
49236;DHT22;35067;48.134;8.378;2023-11-21T04:58:55;5.10;99.90
49236;DHT22;35067;48.134;8.378;2023-11-21T04:59:55;5.10;99.90
49236;DHT22;35067;48.134;8.378;2023-11-21T05:00:57;5.10;99.90
49236;DHT22;35067;48.134;8.378;2023-11-21T05:01:58;4.90;99.90
49236;DHT22;35067;48.134;8.378;2023-11-21T05:03:00;5.00;99.90
49236;DHT22;35067;48.134;8.378;2023-11-21T05:04:04;4.90;99.90
49236;DHT22;35067;48.134;8.378;2023-11-21T05:05:06;4.80;99.90
49236;DHT22;35067;48.134;8.378;2023-11-21T05:06:10;4.80;99.90
49236;DHT22;35067;48.134;8.378;2023-11-21T05:07:11;4.90;99.90
49236;DHT22;35067;48.134;8.378;2023-11-21T05:08:12;4.80;99.90
49236;DHT22;35067;48.134;8.378;2023-11-21T05:09:13;4.90;99.90
49236;DHT22;35067;48.134;8.378;2023-11-21T05:10:14;4.80;99.90
49236;DHT22;35067;48.134;8.378;2023-11-21T05:11:27;4.80;99.90
49236;DHT22;35067;48.134;8.378;2023-11-21T05:12:31;4.90;99.90
49236;DHT22;35067;48.134;8.378;2023-11-21T05:13:38;4.80;99.90
49236;DHT22;35067;48.134;8.378;2023-11-21T05:14:39;4.80;99.90
49236;DHT22;35067;48.134;8.378;2023-11-21T05:15:40;4.70;99.90
49236;DHT22;35067;48.134;8.378;2023-11-21T05:16:41;4.70;99.90
49236;DHT22;35067;48.134;8.378;2023-11-21T05:17:43;4.60;99.90
49236;DHT22;35067;48.134;8.378;2023-11-21T05:18:44;4.70;99.90
49236;DHT22;35067;48.134;8.378;2023-11-21T05:19:45;4.60;99.90
49236;DHT22;35067;48.134;8.378;2023-11-21T05:20:48;4.50;99.90
49236;DHT22;35067;48.134;8.378;2023-11-21T05:21:50;4.40;99.90
49236;DHT22;35067;48.134;8.378;2023-11-21T05:22:51;4.40;99.90
49236;DHT22;35067;48.134;8.378;2023-11-21T05:23:51;4.40;99.90
49236;DHT22;35067;48.134;8.378;2023-11-21T05:24:52;4.40;99.90
49236;DHT22;35067;48.134;8.378;2023-11-21T05:25:53;4.40;99.90
49236;DHT22;35067;48.134;8.378;2023-11-21T05:26:54;4.40;99.90
49236;DHT22;35067;48.134;8.378;2023-11-21T05:27:56;4.40;99.90
49236;DHT22;35067;48.134;8.378;2023-11-21T05:28:59;4.40;99.90
49236;DHT22;35067;48.134;8.378;2023-11-21T05:30:06;4.40;99.90
49236;DHT22;35067;48.134;8.378;2023-11-21T05:31:09;4.50;99.90
49236;DHT22;35067;48.134;8.378;2023-11-21T05:32:11;4.50;99.90
49236;DHT22;35067;48.134;8.378;2023-11-21T05:33:11;4.40;99.90
49236;DHT22;35067;48.134;8.378;2023-11-21T05:34:12;4.40;99.90
49236;DHT22;35067;48.134;8.378;2023-11-21T05:35:13;4.30;99.90
49236;DHT22;35067;48.134;8.378;2023-11-21T05:36:15;4.40;99.90
49236;DHT22;35067;48.134;8.378;2023-11-21T05:37:16;4.40;99.90
49236;DHT22;35067;48.134;8.378;2023-11-21T05:38:18;4.40;99.90
49236;DHT22;35067;48.134;8.378;2023-11-21T05:39:18;4.40;99.90
49236;DHT22;35067;48.134;8.378;2023-11-21T05:40:20;4.40;99.90
49236;DHT22;35067;48.134;8.378;2023-11-21T05:41:22;4.40;99.90
49236;DHT22;35067;48.134;8.378;2023-11-21T05:42:23;4.40;99.90
49236;DHT22;35067;48.134;8.378;2023-11-21T05:43:24;4.20;99.90
49236;DHT22;35067;48.134;8.378;2023-11-21T05:44:25;4.20;99.90
49236;DHT22;35067;48.134;8.378;2023-11-21T05:45:26;4.20;99.90
49236;DHT22;35067;48.134;8.378;2023-11-21T05:46:27;4.20;99.90
49236;DHT22;35067;48.134;8.378;2023-11-21T05:47:28;4.20;99.90
49236;DHT22;35067;48.134;8.378;2023-11-21T05:48:28;4.10;99.90
49236;DHT22;35067;48.134;8.378;2023-11-21T05:49:29;4.10;99.90
49236;DHT22;35067;48.134;8.378;2023-11-21T05:50:30;4.10;99.90
49236;DHT22;35067;48.134;8.378;2023-11-21T05:51:31;4.10;99.90
49236;DHT22;35067;48.134;8.378;2023-11-21T05:52:32;4.10;99.90
49236;DHT22;35067;48.134;8.378;2023-11-21T05:53:33;4.10;99.90
49236;DHT22;35067;48.134;8.378;2023-11-21T05:54:34;4.00;99.90
49236;DHT22;35067;48.134;8.378;2023-11-21T05:55:34;4.00;99.90
49236;DHT22;35067;48.134;8.378;2023-11-21T05:56:35;4.00;99.90
49236;DHT22;35067;48.134;8.378;2023-11-21T05:57:37;4.00;99.90
49236;DHT22;35067;48.134;8.378;2023-11-21T05:58:38;4.10;99.90
49236;DHT22;35067;48.134;8.378;2023-11-21T05:59:39;4.10;99.90
49236;DHT22;35067;48.134;8.378;2023-11-21T06:00:39;4.00;99.90
49236;DHT22;35067;48.134;8.378;2023-11-21T06:01:40;4.00;99.90
49236;DHT22;35067;48.134;8.378;2023-11-21T06:02:41;4.00;99.90
49236;DHT22;35067;48.134;8.378;2023-11-21T06:03:42;4.00;99.90
49236;DHT22;35067;48.134;8.378;2023-11-21T06:04:43;4.00;99.90
49236;DHT22;35067;48.134;8.378;2023-11-21T06:05:44;4.10;99.90
49236;DHT22;35067;48.134;8.378;2023-11-21T06:06:45;4.00;99.90
49236;DHT22;35067;48.134;8.378;2023-11-21T06:07:45;4.10;99.90
49236;DHT22;35067;48.134;8.378;2023-11-21T06:08:46;4.10;99.90
49236;DHT22;35067;48.134;8.378;2023-11-21T06:09:47;4.20;99.90
49236;DHT22;35067;48.134;8.378;2023-11-21T06:10:50;4.00;99.90
49236;DHT22;35067;48.134;8.378;2023-11-21T06:11:51;4.20;99.90
49236;DHT22;35067;48.134;8.378;2023-11-21T06:12:52;4.20;99.90
49236;DHT22;35067;48.134;8.378;2023-11-21T06:13:53;4.10;99.90
49236;DHT22;35067;48.134;8.378;2023-11-21T06:14:54;4.10;99.90
49236;DHT22;35067;48.134;8.378;2023-11-21T06:15:55;4.00;99.90
49236;DHT22;35067;48.134;8.378;2023-11-21T06:16:56;4.10;99.90
49236;DHT22;35067;48.134;8.378;2023-11-21T06:17:58;4.10;99.90
49236;DHT22;35067;48.134;8.378;2023-11-21T06:18:59;4.10;99.90
49236;DHT22;35067;48.134;8.378;2023-11-21T06:19:59;4.20;99.90
49236;DHT22;35067;48.134;8.378;2023-11-21T06:21:01;4.20;99.90
49236;DHT22;35067;48.134;8.378;2023-11-21T06:22:01;4.30;99.90
49236;DHT22;35067;48.134;8.378;2023-11-21T06:23:02;4.40;99.90
49236;DHT22;35067;48.134;8.378;2023-11-21T06:24:04;4.50;99.90
49236;DHT22;35067;48.134;8.378;2023-11-21T06:25:06;4.50;99.90
49236;DHT22;35067;48.134;8.378;2023-11-21T06:26:08;4.50;99.90
49236;DHT22;35067;48.134;8.378;2023-11-21T06:27:09;4.60;99.90
49236;DHT22;35067;48.134;8.378;2023-11-21T06:28:10;4.60;99.90
49236;DHT22;35067;48.134;8.378;2023-11-21T06:29:11;4.70;99.90
49236;DHT22;35067;48.134;8.378;2023-11-21T06:30:12;4.70;99.90
49236;DHT22;35067;48.134;8.378;2023-11-21T06:31:15;4.70;99.90
49236;DHT22;35067;48.134;8.378;2023-11-21T06:32:16;4.70;99.90
49236;DHT22;35067;48.134;8.378;2023-11-21T06:33:16;4.70;99.90